Time;durP1;ratioP1;P1;durP2;ratioP2;P2;SDS_P1;SDS_P2;PMS_P1;PMS_P2;Temp;Humidity;BMP_temperature;BMP_pressure;BME280_temperature;BME280_humidity;BME280_pressure;Samples;Min_cycle;Max_cycle;Signal;HPM_P1;HPM_P2
2022/12/20 02:32:42;;;;;;;54.65;19.15;;;;;;;-9.80;100.00;103344.89;1804074;78;28097;-78
2022/12/20 02:35:12;;;;;;;55.63;20.52;;;;;;;-9.35;100.00;103345.74;1763297;80;21011;-80
2022/12/20 02:37:56;;;;;;;50.55;18.73;;;;;;;-9.06;100.00;103340.64;1734725;81;21149;-78
2022/12/20 02:40:39;;;;;;;46.60;18.30;;;;;;;-8.82;100.00;103339.63;1753719;80;21107;-78
2022/12/20 02:45:14;;;;;;;45.55;18.65;;;;;;;-8.59;100.00;103341.69;1762244;80;21016;-78
2022/12/20 02:45:37;;;;;;;41.20;16.67;;;;;;;-8.42;100.00;103341.80;1771190;80;21051;-78
2022/12/20 02:48:07;;;;;;;42.83;16.50;;;;;;;-8.18;100.00;103340.28;1749628;80;21665;-78
2022/12/20 02:50:41;;;;;;;39.55;17.23;;;;;;;-8.08;100.00;103336.34;1779160;80;21475;-78
2022/12/20 02:53:08;;;;;;;41.02;16.40;;;;;;;-7.99;100.00;103329.38;1745759;80;21031;-78
2022/12/20 02:55:52;;;;;;;42.53;16.37;;;;;;;-7.82;100.00;103332.53;1755147;81;21032;-79
2022/12/20 02:58:26;;;;;;;40.23;15.35;;;;;;;-7.66;100.00;103337.88;1667261;84;21054;-78
2022/12/20 03:00:55;;;;;;;35.68;15.35;;;;;;;-7.56;100.00;103333.45;1670170;83;21008;-78
2022/12/20 03:03:21;;;;;;;42.30;15.50;;;;;;;-7.51;100.00;103334.52;1664401;84;21616;-78
2022/12/20 03:05:50;;;;;;;40.75;16.37;;;;;;;-7.45;100.00;103335.53;1669039;85;21109;-79
2022/12/20 03:08:17;;;;;;;40.23;16.65;;;;;;;-7.41;100.00;103333.17;1670918;84;21223;-79
2022/12/20 03:10:43;;;;;;;39.78;14.80;;;;;;;-7.31;100.00;103335.72;1669676;84;21100;-78
2022/12/20 03:13:10;;;;;;;40.83;15.50;;;;;;;-7.22;100.00;103336.20;1678672;84;21229;-79
2022/12/20 03:15:36;;;;;;;45.63;15.85;;;;;;;-7.06;100.00;103334.49;1664368;83;21817;-79
2022/12/20 03:18:02;;;;;;;42.85;17.02;;;;;;;-6.99;100.00;103329.34;1673405;84;26610;-78
2022/12/20 03:20:28;;;;;;;45.17;18.62;;;;;;;-6.98;100.00;103332.34;1668919;84;21016;-78
2022/12/20 03:22:55;;;;;;;55.12;18.67;;;;;;;-7.01;100.00;103342.98;1662218;84;21083;-79
2022/12/20 03:25:21;;;;;;;44.42;16.82;;;;;;;-6.97;100.00;103335.80;1675155;84;21010;-78
2022/12/20 03:27:47;;;;;;;40.33;15.65;;;;;;;-6.99;100.00;103334.59;1598727;87;21547;-79
2022/12/20 03:30:14;;;;;;;42.90;15.30;;;;;;;-7.00;100.00;103328.97;1606347;87;21586;-79
2022/12/20 03:32:40;;;;;;;45.20;15.50;;;;;;;-6.95;100.00;103337.89;1624934;86;21245;-81
2022/12/20 03:35:07;;;;;;;44.85;15.32;;;;;;;-6.98;100.00;103334.97;1638875;83;21047;-78
2022/12/20 03:37:33;;;;;;;41.05;15.95;;;;;;;-6.99;100.00;103341.14;1708048;83;21082;-78
2022/12/20 03:39:59;;;;;;;38.20;14.95;;;;;;;-6.99;100.00;103331.97;1709808;83;21024;-77
2022/12/20 03:42:25;;;;;;;43.00;16.55;;;;;;;-6.98;100.00;103327.57;1710594;83;21073;-78
2022/12/20 03:44:51;;;;;;;36.85;14.55;;;;;;;-6.95;100.00;103333.50;1712516;83;21534;-78
2022/12/20 03:47:17;;;;;;;47.95;15.23;;;;;;;-6.90;100.00;103335.90;1712121;83;25950;-78
2022/12/20 03:49:43;;;;;;;42.17;15.18;;;;;;;-6.88;100.00;103336.68;1688326;83;21578;-78
2022/12/20 03:52:14;;;;;;;46.13;14.85;;;;;;;-6.88;100.00;103333.59;1734690;80;21093;-78
2022/12/20 03:54:40;;;;;;;46.60;15.83;;;;;;;-6.83;100.00;103333.81;1764102;80;21022;-79
2022/12/20 03:57:06;;;;;;;39.18;15.08;;;;;;;-6.85;100.00;103327.34;1761443;80;20968;-78
2022/12/20 03:59:32;;;;;;;38.85;15.05;;;;;;;-6.78;100.00;103330.50;1754333;80;21051;-78
2022/12/20 04:01:59;;;;;;;36.98;14.20;;;;;;;-6.76;100.00;103335.20;1764309;80;20991;-78
2022/12/20 04:04:25;;;;;;;40.88;15.65;;;;;;;-6.74;100.00;103334.64;1765061;80;21524;-78
2022/12/20 04:06:50;;;;;;;43.05;15.53;;;;;;;-6.73;100.00;103330.65;1748411;80;26495;-78
2022/12/20 04:09:17;;;;;;;43.48;17.12;;;;;;;-6.73;100.00;103334.58;1757527;80;20989;-78
2022/12/20 04:11:42;;;;;;;47.13;14.70;;;;;;;-6.75;100.00;103327.72;1754648;80;20937;-78
2022/12/20 04:14:09;;;;;;;39.63;14.73;;;;;;;-6.75;100.00;103320.69;1757967;80;20885;-78
2022/12/20 04:16:35;;;;;;;39.63;13.55;;;;;;;-6.75;100.00;103331.18;1753751;80;21377;-78
2022/12/20 04:19:01;;;;;;;38.78;14.23;;;;;;;-6.76;100.00;103329.50;1763780;80;21027;-78
2022/12/20 04:21:33;;;;;;;37.33;13.93;;;;;;;-6.74;100.00;103329.41;1766820;80;21008;-78
2022/12/20 04:24:00;;;;;;;39.88;14.07;;;;;;;-6.77;100.00;103332.18;1760686;80;21110;-78
2022/12/20 04:26:27;;;;;;;35.48;12.23;;;;;;;-6.82;100.00;103327.63;1757549;80;21007;-78
2022/12/20 04:28:53;;;;;;;36.77;13.58;;;;;;;-6.77;100.00;103329.09;1759804;80;21861;-79
2022/12/20 04:31:19;;;;;;;37.25;13.55;;;;;;;-6.72;100.00;103332.80;1759080;80;21539;-78
2022/12/20 04:33:47;;;;;;;32.83;13.50;;;;;;;-6.71;100.00;103327.46;1754833;80;21412;-79
2022/12/20 04:36:14;;;;;;;35.92;13.38;;;;;;;-6.69;100.00;103332.17;1757065;80;21513;-79
2022/12/20 04:38:40;;;;;;;38.08;14.05;;;;;;;-6.68;100.00;103336.48;1769116;80;21000;-78
2022/12/20 04:41:06;;;;;;;34.00;12.70;;;;;;;-6.64;100.00;103338.50;1757976;80;21053;-78
2022/12/20 04:43:32;;;;;;;34.55;13.53;;;;;;;-6.67;100.00;103341.28;1755787;80;20981;-78
2022/12/20 04:45:58;;;;;;;38.05;14.87;;;;;;;-6.72;100.00;103333.64;1762796;80;21075;-78
2022/12/20 04:48:26;;;;;;;56.05;17.50;;;;;;;-6.76;100.00;103332.12;1750873;80;22401;-78
2022/12/20 04:50:54;;;;;;;40.63;15.38;;;;;;;-6.77;100.00;103325.63;1757477;80;21551;-78
2022/12/20 04:56:07;;;;;;;56.15;21.15;;;;;;;-6.77;100.00;103329.56;1753380;80;21056;-79
2022/12/20 04:58:33;;;;;;;57.48;22.48;;;;;;;-6.76;100.00;103322.10;1760018;80;21072;-79
2022/12/20 05:00:59;;;;;;;43.60;16.10;;;;;;;-6.74;100.00;103325.47;1759731;80;20963;-79
2022/12/20 05:03:26;;;;;;;42.35;14.83;;;;;;;-6.79;100.00;103321.79;1776388;80;21026;-79
2022/12/20 05:05:52;;;;;;;38.65;13.10;;;;;;;-6.78;100.00;103326.56;1764328;80;21544;-79
2022/12/20 05:08:19;;;;;;;46.77;15.18;;;;;;;-6.83;100.00;103316.77;1762718;80;21023;-79
2022/12/20 05:10:45;;;;;;;37.23;14.45;;;;;;;-6.83;100.00;103316.77;1758589;80;21000;-79
2022/12/20 05:13:11;;;;;;;56.77;18.45;;;;;;;-6.93;100.00;103319.86;1744863;80;21519;-79
2022/12/20 05:15:37;;;;;;;60.80;21.50;;;;;;;-6.83;100.00;103323.32;1752025;80;20848;-79
2022/12/20 05:18:03;;;;;;;61.90;20.12;;;;;;;-6.86;100.00;103320.39;1761078;81;21100;-79
2022/12/20 05:20:31;;;;;;;57.98;17.75;;;;;;;-6.83;100.00;103318.08;1750996;80;21035;-79
2022/12/20 05:26:16;;;;;;;61.58;22.27;;;;;;;-6.89;100.00;103315.30;1765816;80;20998;-79
2022/12/20 05:28:16;;;;;;;63.23;20.02;;;;;;;-6.92;100.00;103314.99;1780317;80;21043;-79
2022/12/20 05:30:42;;;;;;;54.33;18.80;;;;;;;-6.86;100.00;103315.14;1786572;80;21714;-79
2022/12/20 05:33:08;;;;;;;62.33;20.65;;;;;;;-6.87;100.00;103319.55;1767575;80;26649;-79
2022/12/20 05:35:34;;;;;;;60.67;19.27;;;;;;;-6.91;100.00;103321.08;1757538;80;27089;-79
2022/12/20 05:38:01;;;;;;;58.70;21.02;;;;;;;-6.87;100.00;103324.79;1763903;80;20995;-79
2022/12/20 05:40:27;;;;;;;61.73;22.93;;;;;;;-6.79;100.00;103318.30;1765014;80;21017;-79
2022/12/20 05:42:54;;;;;;;65.00;21.50;;;;;;;-6.77;100.00;103319.91;1760670;80;21154;-79
2022/12/20 05:45:20;;;;;;;61.85;21.97;;;;;;;-6.74;100.00;103321.06;1762024;81;21046;-79
2022/12/20 05:47:46;;;;;;;62.38;22.00;;;;;;;-6.70;100.00;103322.63;1760269;80;20972;-79
2022/12/20 05:50:12;;;;;;;65.30;22.67;;;;;;;-6.67;100.00;103315.91;1763644;80;20878;-79
2022/12/20 05:52:38;;;;;;;76.95;24.75;;;;;;;-6.63;100.00;103308.72;1761644;81;21040;-79
2022/12/20 05:55:05;;;;;;;68.00;23.87;;;;;;;-6.58;100.00;103307.19;1774291;80;21096;-79
2022/12/20 05:57:30;;;;;;;95.28;31.68;;;;;;;-6.45;100.00;103305.13;1763626;80;20978;-79
2022/12/20 05:59:56;;;;;;;93.62;29.40;;;;;;;-6.24;100.00;103307.53;1776545;80;26474;-79
2022/12/20 06:02:22;;;;;;;92.15;28.60;;;;;;;-5.74;100.00;103298.63;1756784;80;20940;-79
2022/12/20 06:04:48;;;;;;;97.30;28.17;;;;;;;-4.64;100.00;103298.77;1760135;80;21719;-80
2022/12/20 06:07:15;;;;;;;87.30;24.77;;;;;;;-3.87;100.00;103297.95;1764761;80;21216;-80
2022/12/20 06:09:41;;;;;;;84.37;25.80;;;;;;;-3.52;100.00;103293.52;1753094;80;21605;-80
2022/12/20 06:12:07;;;;;;;80.65;24.82;;;;;;;-2.75;100.00;103288.73;1774431;80;20913;-81
2022/12/20 06:14:33;;;;;;;85.12;26.73;;;;;;;-1.99;100.00;103296.68;1753208;81;21008;-81
2022/12/20 06:16:59;;;;;;;80.95;24.90;;;;;;;-1.71;100.00;103292.86;1771880;80;20999;-81
2022/12/20 06:19:25;;;;;;;77.72;25.92;;;;;;;-1.28;100.00;103293.67;1767384;80;21890;-81
2022/12/20 06:21:51;;;;;;;75.78;25.35;;;;;;;-0.24;100.00;103290.46;1761640;80;21502;-82
2022/12/20 06:24:17;;;;;;;81.95;24.07;;;;;;;1.30;100.00;103288.41;1753603;80;20951;-82
2022/12/20 06:27:11;;;;;;;76.65;25.70;;;;;;;3.12;100.00;103284.50;1758834;80;20993;-82
2022/12/20 06:29:38;;;;;;;54.20;19.95;;;;;;;4.68;100.00;103279.98;1766945;80;21079;-83
2022/12/20 06:32:04;;;;;;;50.75;19.52;;;;;;;6.48;100.00;103280.02;1770939;80;21019;-83
2022/12/20 06:34:32;;;;;;;47.27;19.32;;;;;;;7.80;100.00;103284.15;1765182;80;21668;-83
2022/12/20 06:36:58;;;;;;;49.20;18.85;;;;;;;9.19;100.00;103279.11;1757738;80;20995;-83
2022/12/20 06:39:24;;;;;;;44.05;17.27;;;;;;;10.50;100.00;103272.88;1749974;80;21481;-84
2022/12/20 06:41:50;;;;;;;40.30;16.90;;;;;;;11.59;100.00;103278.64;1762915;80;21038;-84
2022/12/20 06:44:16;;;;;;;42.78;17.48;;;;;;;12.39;100.00;103282.98;1727972;81;21211;-84
2022/12/20 06:46:42;;;;;;;32.65;14.03;;;;;;;13.10;100.00;103285.59;1758215;80;21041;-84
2022/12/20 06:49:09;;;;;;;32.70;13.80;;;;;;;13.74;100.00;103279.94;1755263;80;21035;-81
2022/12/20 06:51:35;;;;;;;34.05;14.13;;;;;;;14.41;100.00;103292.09;1756209;80;21453;-81
2022/12/20 06:57:06;;;;;;;40.63;17.62;;;;;;;15.65;95.79;103288.14;1767451;80;20989;-82
2022/12/20 06:59:32;;;;;;;36.53;15.40;;;;;;;16.16;83.11;103281.96;1750174;80;21529;-82
2022/12/20 07:01:58;;;;;;;37.23;15.83;;;;;;;16.61;78.26;103274.67;1766555;80;21019;-81
2022/12/20 07:04:24;;;;;;;34.20;14.53;;;;;;;17.12;75.26;103276.75;1749735;80;21058;-83
2022/12/20 07:06:50;;;;;;;25.48;11.85;;;;;;;17.05;69.54;103276.02;1756968;80;20992;-83
2022/12/20 07:09:16;;;;;;;26.52;13.05;;;;;;;16.50;66.82;103277.66;1770039;80;21240;-82
2022/12/20 07:11:42;;;;;;;24.92;12.00;;;;;;;16.87;66.18;103268.80;1774058;80;21594;-81
2022/12/20 11:21:24;;;;;;;24.55;9.58;;;;;;;-1.51;100.00;102902.25;1795812;79;22663;-83
2022/12/20 11:24:11;;;;;;;20.23;8.35;;;;;;;-1.15;100.00;102893.16;1755587;81;20979;-83
2022/12/20 11:27:18;;;;;;;20.00;8.33;;;;;;;-0.89;100.00;102881.37;1696964;84;21541;-82
2022/12/20 11:29:55;;;;;;;27.58;10.93;;;;;;;-0.60;100.00;102877.61;1697077;83;21042;-81
2022/12/20 11:32:29;;;;;;;24.82;10.82;;;;;;;-0.39;100.00;102875.77;1697102;84;21045;-82
2022/12/20 11:35:18;;;;;;;24.00;8.48;;;;;;;-0.26;100.00;102876.91;1697109;83;21022;-82
2022/12/20 11:38:05;;;;;;;24.30;9.38;;;;;;;-0.09;100.00;102874.97;1696795;83;21023;-82
2022/12/20 11:40:40;;;;;;;23.90;9.28;;;;;;;0.07;100.00;102863.86;1694304;83;21176;-82
2022/12/20 11:43:54;;;;;;;22.07;9.10;;;;;;;0.21;100.00;102865.31;1672579;85;21109;-82
2022/12/20 11:46:37;;;;;;;30.88;12.25;;;;;;;0.28;100.00;102853.17;1654247;86;21134;-82
2022/12/20 11:49:28;;;;;;;30.08;11.22;;;;;;;0.43;100.00;102847.83;1648347;86;21012;-82
2022/12/20 11:52:11;;;;;;;32.73;12.20;;;;;;;0.50;100.00;102844.16;1654390;86;21630;-82
2022/12/20 11:54:45;;;;;;;28.65;11.18;;;;;;;0.67;100.00;102834.66;1624351;88;26475;-82
2022/12/20 11:57:31;;;;;;;28.60;11.65;;;;;;;0.75;100.00;102835.30;1576161;91;21131;-81
2022/12/20 12:00:01;;;;;;;28.15;11.25;;;;;;;0.72;100.00;102832.44;1576290;91;21111;-81
2022/12/20 12:06:37;;;;;;;27.07;10.32;;;;;;;0.28;100.00;102825.33;1795899;79;23399;-82
2022/12/20 12:20:32;;;;;;;32.90;11.45;;;;;;;0.62;100.00;102815.19;1757459;81;21079;-83
2022/12/20 12:23:27;;;;;;;29.13;11.30;;;;;;;0.70;100.00;102799.88;1658335;86;21095;-83
2022/12/20 12:25:53;;;;;;;31.87;11.50;;;;;;;0.66;100.00;102790.05;1661093;86;21136;-83
2022/12/20 12:28:21;;;;;;;33.92;11.60;;;;;;;0.61;100.00;102802.05;1661476;86;21136;-83
2022/12/20 12:30:57;;;;;;;33.10;12.55;;;;;;;0.65;100.00;102791.53;1661310;86;21019;-83
2022/12/20 12:33:35;;;;;;;30.23;10.58;;;;;;;0.71;100.00;102790.10;1659486;86;21467;-83
2022/12/20 12:39:49;;;;;;;28.95;10.10;;;;;;;0.72;100.00;102798.43;1596746;89;21039;-83
2022/12/20 12:42:56;;;;;;;36.63;13.78;;;;;;;0.64;100.00;102788.01;1576463;90;21298;-83
2022/12/20 12:45:46;;;;;;;29.50;11.03;;;;;;;0.58;100.00;102784.59;1534792;93;21071;-83
2022/12/20 12:48:29;;;;;;;31.52;12.90;;;;;;;0.55;100.00;102778.24;1533251;93;21520;-82
2022/12/20 12:51:15;;;;;;;33.98;12.47;;;;;;;0.50;100.00;102769.89;1533418;93;21148;-83
2022/12/20 12:53:46;;;;;;;34.13;12.05;;;;;;;0.48;100.00;102761.72;1534798;93;21555;-83
2022/12/20 12:56:33;;;;;;;37.85;13.30;;;;;;;0.48;100.00;102759.06;1534614;93;21862;-82
2022/12/20 12:59:10;;;;;;;34.95;12.15;;;;;;;0.46;100.00;102760.52;1534404;93;21067;-83
2022/12/20 13:02:14;;;;;;;32.38;12.90;;;;;;;0.43;100.00;102758.97;1517651;94;21138;-83
2022/12/20 13:05:09;;;;;;;39.40;13.30;;;;;;;0.36;100.00;102751.73;1515139;94;21552;-83
2022/12/20 13:07:44;;;;;;;33.02;12.50;;;;;;;0.31;100.00;102748.16;1503807;95;21172;-83
2022/12/20 13:10:23;;;;;;;37.93;14.90;;;;;;;0.21;100.00;102740.70;1503530;95;21246;-82
2022/12/20 13:12:57;;;;;;;32.23;12.00;;;;;;;0.14;100.00;102737.73;1503275;95;21096;-82
2022/12/20 13:15:31;;;;;;;30.27;10.68;;;;;;;0.10;100.00;102733.70;1503424;95;21072;-83
2022/12/20 13:18:00;;;;;;;28.40;10.60;;;;;;;0.06;100.00;102739.40;1503253;95;21123;-83
2022/12/20 13:20:34;;;;;;;30.32;10.55;;;;;;;-0.04;100.00;102738.90;1525590;93;21079;-82
2022/12/20 13:25:51;;;;;;;33.28;11.38;;;;;;;-0.16;100.00;102742.64;1491361;96;21006;-82
2022/12/20 13:28:28;;;;;;;34.18;12.03;;;;;;;-0.20;100.00;102733.30;1491625;96;21735;-82
2022/12/20 13:31:05;;;;;;;37.13;13.62;;;;;;;-0.22;100.00;102731.76;1491702;96;21115;-82
2022/12/20 13:33:48;;;;;;;34.83;13.03;;;;;;;-0.27;100.00;102728.17;1500482;94;21106;-81
2022/12/20 13:36:34;;;;;;;31.25;12.60;;;;;;;-0.35;100.00;102725.39;1502952;95;21935;-81
2022/12/20 13:39:05;;;;;;;39.88;13.03;;;;;;;-0.43;100.00;102720.75;1563951;87;21085;-82
2022/12/20 13:41:42;;;;;;;49.03;15.13;;;;;;;-0.52;100.00;102717.09;1603217;89;21554;-81
2022/12/20 13:44:20;;;;;;;44.48;14.90;;;;;;;-0.59;100.00;102714.65;1604658;89;21573;-82
2022/12/20 13:47:22;;;;;;;44.38;14.15;;;;;;;-0.65;100.00;102714.32;1604808;89;21518;-82
2022/12/20 13:49:48;;;;;;;40.38;13.85;;;;;;;-0.77;100.00;102703.82;1601346;89;21010;-82
2022/12/20 13:52:33;;;;;;;54.15;15.78;;;;;;;-0.87;100.00;102700.80;1552762;92;21003;-82
2022/12/20 13:55:07;;;;;;;58.17;17.92;;;;;;;-0.94;100.00;102693.88;1552355;92;21123;-82
2022/12/20 13:57:43;;;;;;;60.08;19.42;;;;;;;-1.04;100.00;102685.04;1510823;94;21693;-81
2022/12/20 14:00:20;;;;;;;71.12;21.55;;;;;;;-1.11;100.00;102678.61;1509194;94;21113;-81
2022/12/20 14:02:46;;;;;;;62.58;19.20;;;;;;;-1.18;100.00;102673.84;1493453;95;21822;-81
2022/12/20 14:05:36;;;;;;;60.33;17.42;;;;;;;-1.23;100.00;102673.87;1471900;96;21129;-81
2022/12/20 14:08:18;;;;;;;64.20;18.73;;;;;;;-1.27;100.00;102671.13;1492052;96;21110;-81
2022/12/20 14:10:44;;;;;;;65.32;19.92;;;;;;;-1.32;100.00;102670.21;1469086;96;21086;-81
2022/12/20 14:13:21;;;;;;;57.75;17.82;;;;;;;-1.44;100.00;102668.58;1469185;97;21082;-81
2022/12/20 14:15:48;;;;;;;72.15;21.37;;;;;;;-1.54;100.00;102665.05;1467173;96;21126;-81
2022/12/20 14:18:25;;;;;;;68.25;22.07;;;;;;;-1.60;100.00;102665.07;1468921;96;21133;-81
2022/12/20 14:20:58;;;;;;;73.10;21.82;;;;;;;-1.65;100.00;102652.72;1469115;96;21694;-81
2022/12/20 14:23:30;;;;;;;;;;;;;;;-1.71;100.00;102650.09;1446215;98;21194;-81
2022/12/20 14:25:59;;;;;;;74.37;22.27;;;;;;;-1.77;100.00;102641.85;1447178;98;20357;-81
2022/12/20 14:28:36;;;;;;;90.62;26.85;;;;;;;-1.79;100.00;102646.41;1449707;99;21846;-81
2022/12/20 14:31:04;;;;;;;89.15;27.15;;;;;;;-1.81;100.00;102647.88;1451632;95;21159;-81
2022/12/20 14:33:39;;;;;;;92.70;28.73;;;;;;;-1.89;100.00;102641.06;1498520;95;21079;-80
2022/12/20 14:38:50;;;;;;;100.47;29.07;;;;;;;-1.87;100.00;102637.34;1457589;96;21185;-80
2022/12/20 14:41:36;;;;;;;104.53;30.93;;;;;;;-1.88;100.00;102630.88;1446557;98;21867;-80
2022/12/20 14:44:16;;;;;;;98.70;30.32;;;;;;;-1.83;100.00;102626.02;1464155;98;21123;-80
2022/12/20 14:47:02;;;;;;;97.42;31.35;;;;;;;-1.83;100.00;102624.21;1456462;98;21021;-80
2022/12/20 14:49:37;;;;;;;111.45;31.42;;;;;;;-1.84;100.00;102611.98;1416714;101;21147;-80
2022/12/20 14:52:19;;;;;;;121.17;33.33;;;;;;;-1.86;100.00;102611.75;1416926;101;21040;-80
2022/12/20 14:55:08;;;;;;;124.85;34.40;;;;;;;-1.86;100.00;102604.65;1436431;98;21264;-81
2022/12/20 14:57:39;;;;;;;118.40;33.28;;;;;;;-1.97;100.00;102607.38;1448219;99;21146;-82
2022/12/20 15:00:28;;;;;;;116.15;34.48;;;;;;;-1.88;100.00;102604.45;1479467;96;21098;-81
2022/12/20 15:03:18;;;;;;;141.85;38.65;;;;;;;-1.84;100.00;102601.89;1492722;96;21069;-81
2022/12/20 15:05:52;;;;;;;131.72;37.95;;;;;;;-1.78;100.00;102600.06;1494542;95;21085;-81
2022/12/20 15:08:31;;;;;;;133.43;38.25;;;;;;;-1.76;100.00;102594.66;1502406;95;21640;-80
2022/12/20 15:11:20;;;;;;;151.45;40.85;;;;;;;-1.81;100.00;102592.87;1502171;95;21463;-81
2022/12/20 15:13:51;;;;;;;137.90;39.10;;;;;;;-1.93;100.00;102596.06;1496244;93;21307;-80
2022/12/20 15:16:20;;;;;;;140.92;41.08;;;;;;;-1.87;100.00;102592.42;1498714;93;21584;-80
2022/12/20 15:18:49;;;;;;;145.35;41.50;;;;;;;-1.83;100.00;102588.54;1517370;93;21561;-80
2022/12/20 15:21:32;;;;;;;159.05;44.08;;;;;;;-1.86;100.00;102587.48;1471383;96;21206;-80
2022/12/20 15:24:01;;;;;;;171.57;43.52;;;;;;;-1.82;100.00;102586.77;1477953;95;25944;-80
2022/12/20 15:26:29;;;;;;;159.27;45.63;;;;;;;-1.79;100.00;102577.71;1484376;95;21140;-80
2022/12/20 15:28:56;;;;;;;162.27;46.83;;;;;;;-1.86;100.00;102583.52;1481232;95;21614;-80
2022/12/20 15:31:24;;;;;;;186.15;49.98;;;;;;;-1.83;100.00;102575.81;1481274;95;21145;-80
2022/12/20 15:33:53;;;;;;;165.32;46.83;;;;;;;-1.90;100.00;102579.47;1481299;95;21094;-80
2022/12/20 15:36:25;;;;;;;157.88;46.70;;;;;;;-1.91;100.00;102585.73;1569290;89;21126;-80
2022/12/20 15:38:52;;;;;;;170.92;48.68;;;;;;;-1.94;100.00;102579.37;1600113;89;21058;-80
2022/12/20 15:41:25;;;;;;;172.60;48.28;;;;;;;-1.77;100.00;102579.26;1600451;89;21014;-80
2022/12/20 15:43:54;;;;;;;;;;;;;;;-1.75;100.00;102569.90;1602952;89;21154;-80
2022/12/20 15:46:20;;;;;;;174.07;49.15;;;;;;;-1.77;100.00;102564.73;1570548;91;21068;-80
2022/12/20 15:48:46;;;;;;;187.47;50.35;;;;;;;-1.73;100.00;102561.36;1570755;91;20890;-80
2022/12/20 15:51:17;;;;;;;182.50;51.60;;;;;;;-1.69;100.00;102562.77;1587354;89;20983;-80
2022/12/20 15:53:43;;;;;;;180.05;50.58;;;;;;;-1.63;100.00;102553.83;1566015;90;21066;-80
2022/12/20 15:56:20;;;;;;;193.97;53.08;;;;;;;-1.58;100.00;102544.19;1565924;90;21116;-80
2022/12/20 15:58:48;;;;;;;175.97;51.95;;;;;;;-1.50;100.00;102546.16;1606403;86;21243;-80
2022/12/20 16:01:29;;;;;;;181.87;51.95;;;;;;;-1.43;100.00;102538.91;1651167;86;21642;-80
2022/12/20 16:03:55;;;;;;;196.82;55.50;;;;;;;-1.37;100.00;102533.56;1439029;98;21113;-80
2022/12/20 16:06:22;;;;;;;176.42;52.65;;;;;;;-1.38;100.00;102531.41;1484438;95;20947;-81
2022/12/20 16:08:48;;;;;;;195.30;55.88;;;;;;;-1.32;100.00;102528.73;1482619;96;21665;-80
2022/12/20 16:11:27;;;;;;;187.82;51.77;;;;;;;-1.30;100.00;102524.61;1482410;96;21139;-80
2022/12/20 16:13:57;;;;;;;237.23;63.17;;;;;;;-1.27;100.00;102517.73;1482386;96;21046;-79
2022/12/20 16:16:29;;;;;;;213.70;57.40;;;;;;;-1.22;100.00;102508.91;1422374;100;21085;-80
2022/12/20 16:18:56;;;;;;;198.20;53.65;;;;;;;-1.21;100.00;102506.11;1422467;100;21077;-81
2022/12/20 20:06:16;;;;;;;58.90;17.75;;;;;;;-3.76;100.00;102252.34;1794178;78;26307;-80
2022/12/20 20:08:43;;;;;;;53.10;17.60;;;;;;;-3.45;100.00;102239.28;1767331;80;21107;-80
2022/12/20 20:11:10;;;;;;;57.80;17.75;;;;;;;-3.18;100.00;102237.45;1761209;80;21123;-79
2022/12/20 20:13:37;;;;;;;53.05;17.25;;;;;;;-2.97;100.00;102240.10;1738399;81;21551;-80
2022/12/20 20:16:05;;;;;;;49.23;15.78;;;;;;;-2.67;100.00;102242.41;1755849;80;21036;-81
2022/12/20 20:18:36;;;;;;;50.60;16.17;;;;;;;-2.41;100.00;102238.34;1764575;80;20992;-81
2022/12/20 20:21:12;;;;;;;56.58;17.32;;;;;;;-2.20;100.00;102227.70;1763519;80;21040;-81
2022/12/20 20:23:39;;;;;;;43.58;15.83;;;;;;;-1.99;100.00;102228.08;1740057;80;21174;-80
2022/12/20 20:26:11;;;;;;;40.25;14.00;;;;;;;-1.78;100.00;102226.64;1725760;81;21055;-80
2022/12/20 20:28:39;;;;;;;48.15;14.07;;;;;;;-1.66;100.00;102224.20;1726087;83;21052;-80
2022/12/20 20:34:46;;;;;;;43.87;13.18;;;;;;;-1.41;100.00;102226.30;1734470;81;21613;-81
2022/12/20 20:37:11;;;;;;;37.83;12.55;;;;;;;-1.26;100.00;102230.66;1733448;80;20992;-81
2022/12/20 20:39:37;;;;;;;49.25;13.93;;;;;;;-1.17;100.00;102228.98;1741335;80;20917;-80
2022/12/20 20:42:03;;;;;;;39.00;12.60;;;;;;;-1.10;100.00;102230.56;1734554;80;20975;-81
2022/12/20 20:44:29;;;;;;;37.67;12.58;;;;;;;-1.03;100.00;102228.99;1732012;81;22199;-81
2022/12/20 20:46:55;;;;;;;38.58;12.45;;;;;;;-0.97;100.00;102227.09;1743185;81;20983;-80
2022/12/20 20:49:21;;;;;;;37.83;12.07;;;;;;;-0.93;100.00;102227.17;1735570;81;21181;-81
2022/12/20 20:51:47;;;;;;;34.98;11.65;;;;;;;-0.85;100.00;102230.41;1730513;82;20855;-80
2022/12/20 20:54:14;;;;;;;35.13;11.00;;;;;;;-0.80;100.00;102225.52;1729471;81;21063;-80
2022/12/20 20:56:40;;;;;;;35.28;11.75;;;;;;;-0.75;100.00;102218.81;1729392;81;21058;-82
2022/12/20 20:59:08;;;;;;;33.30;11.08;;;;;;;-0.65;100.00;102221.42;1738762;80;20993;-81
2022/12/20 21:01:34;;;;;;;31.52;10.32;;;;;;;-0.60;100.00;102219.17;1753989;81;21138;-81
2022/12/20 21:04:01;;;;;;;32.28;9.85;;;;;;;-0.59;100.00;102218.22;1755259;81;21471;-81
2022/12/20 21:06:28;;;;;;;27.90;9.98;;;;;;;-0.52;100.00;102222.43;1755281;81;21530;-81
2022/12/20 21:08:55;;;;;;;30.50;10.10;;;;;;;-0.48;100.00;102217.17;1755698;81;21040;-80
2022/12/20 21:11:21;;;;;;;28.50;9.50;;;;;;;-0.43;100.00;102214.92;1756787;81;21070;-81
2022/12/20 21:13:47;;;;;;;29.02;9.90;;;;;;;-0.40;100.00;102213.30;1760169;81;21167;-80
2022/12/20 21:16:20;;;;;;;27.13;9.45;;;;;;;-0.36;100.00;102215.16;1761507;81;21306;-81
2022/12/20 21:18:45;;;;;;;23.77;9.18;;;;;;;-0.35;100.00;102204.94;1756541;81;21107;-81
2022/12/20 21:21:12;;;;;;;26.80;8.80;;;;;;;-0.28;100.00;102209.47;1748209;80;21546;-81
2022/12/20 21:23:45;;;;;;;30.12;9.55;;;;;;;-0.24;100.00;102208.21;1744856;81;20988;-81
2022/12/20 21:26:12;;;;;;;26.48;8.93;;;;;;;-0.23;100.00;102205.06;1717369;80;21218;-81
2022/12/20 21:28:39;;;;;;;24.27;8.60;;;;;;;-0.19;100.00;102201.12;1739971;80;21065;-80
2022/12/20 21:31:10;;;;;;;27.20;9.68;;;;;;;-0.19;100.00;102206.42;1738248;81;21074;-81
2022/12/20 21:33:37;;;;;;;28.30;10.30;;;;;;;-0.14;100.00;102204.17;1736671;81;21621;-81
2022/12/20 21:36:12;;;;;;;27.15;9.25;;;;;;;-0.11;100.00;102202.55;1745861;79;21118;-81
2022/12/20 21:38:39;;;;;;;24.72;10.10;;;;;;;-0.08;100.00;102199.59;1752162;80;22133;-81
2022/12/20 21:41:11;;;;;;;27.55;8.78;;;;;;;-0.05;100.00;102209.89;1719278;82;22665;-81
2022/12/20 21:43:37;;;;;;;27.93;9.38;;;;;;;-0.06;100.00;102200.75;1745783;79;21094;-81
2022/12/20 21:46:04;;;;;;;27.98;9.58;;;;;;;-0.04;100.00;102200.13;1743782;80;21056;-80
2022/12/20 21:48:30;;;;;;;28.00;9.60;;;;;;;0.01;100.00;102199.68;1735681;82;21047;-81
2022/12/20 21:51:12;;;;;;;29.75;9.40;;;;;;;0.02;100.00;102200.84;1735861;82;21118;-81
2022/12/20 21:53:48;;;;;;;25.97;9.53;;;;;;;0.04;100.00;102195.41;1735564;82;21596;-81
2022/12/20 21:56:14;;;;;;;26.40;9.48;;;;;;;0.08;100.00;102186.98;1732810;82;21619;-81
2022/12/20 21:58:41;;;;;;;26.05;9.38;;;;;;;0.10;100.00;102183.70;1755648;80;21044;-81
2022/12/20 22:01:08;;;;;;;28.60;9.70;;;;;;;0.13;100.00;102184.72;1769343;81;21047;-80
2022/12/20 22:03:35;;;;;;;23.90;8.98;;;;;;;0.16;100.00;102180.44;1769839;81;21058;-81
2022/12/20 22:06:01;;;;;;;29.15;9.85;;;;;;;0.20;100.00;102175.66;1768904;81;21540;-81
2022/12/20 22:08:28;;;;;;;27.35;9.80;;;;;;;0.20;100.00;102176.48;1769615;80;21497;-81
2022/12/20 22:11:04;;;;;;;29.82;10.23;;;;;;;0.22;100.00;102176.35;1773956;80;21035;-81
2022/12/20 22:13:31;;;;;;;24.67;9.05;;;;;;;0.20;100.00;102167.70;1769794;80;21563;-81
2022/12/20 22:15:57;;;;;;;25.02;9.25;;;;;;;0.23;100.00;102162.92;1770702;80;21300;-80
2022/12/20 22:18:24;;;;;;;28.20;9.50;;;;;;;0.26;100.00;102157.81;1769848;81;21524;-81
2022/12/20 22:24:19;;;;;;;28.85;9.85;;;;;;;0.33;100.00;102145.63;1767801;81;21098;-81
2022/12/20 22:26:45;;;;;;;30.10;9.90;;;;;;;0.37;100.00;102144.33;1754675;78;20998;-81